sensor_id;sensor_type;location;lat;lon;timestamp;temperature;humidity
23618;DHT22;18207;32.078;34.818;2023-02-28T00:00:14;23.80;39.50
23618;DHT22;18207;32.078;34.818;2023-02-28T00:02:47;23.80;39.40
23618;DHT22;18207;32.078;34.818;2023-02-28T00:05:19;23.80;39.40
23618;DHT22;18207;32.078;34.818;2023-02-28T00:07:52;23.70;39.30
23618;DHT22;18207;32.078;34.818;2023-02-28T00:10:25;23.80;39.30
23618;DHT22;18207;32.078;34.818;2023-02-28T00:13:00;23.80;39.20
23618;DHT22;18207;32.078;34.818;2023-02-28T00:15:33;23.70;39.10
23618;DHT22;18207;32.078;34.818;2023-02-28T00:18:06;23.80;39.80
23618;DHT22;18207;32.078;34.818;2023-02-28T00:20:37;23.70;39.10
23618;DHT22;18207;32.078;34.818;2023-02-28T00:23:09;23.70;39.10
23618;DHT22;18207;32.078;34.818;2023-02-28T00:25:40;23.70;39.00
23618;DHT22;18207;32.078;34.818;2023-02-28T00:28:11;23.70;39.00
23618;DHT22;18207;32.078;34.818;2023-02-28T00:30:42;23.60;39.30
23618;DHT22;18207;32.078;34.818;2023-02-28T00:33:14;23.60;38.90
23618;DHT22;18207;32.078;34.818;2023-02-28T00:35:46;23.60;38.80
23618;DHT22;18207;32.078;34.818;2023-02-28T00:38:16;23.60;38.80
23618;DHT22;18207;32.078;34.818;2023-02-28T00:40:47;23.60;38.80
23618;DHT22;18207;32.078;34.818;2023-02-28T00:43:18;23.60;38.80
23618;DHT22;18207;32.078;34.818;2023-02-28T00:45:48;23.50;38.70
23618;DHT22;18207;32.078;34.818;2023-02-28T00:48:20;23.60;38.80
23618;DHT22;18207;32.078;34.818;2023-02-28T00:51:00;23.50;38.70
23618;DHT22;18207;32.078;34.818;2023-02-28T00:53:32;23.50;38.70
23618;DHT22;18207;32.078;34.818;2023-02-28T00:56:04;23.50;38.70
23618;DHT22;18207;32.078;34.818;2023-02-28T00:58:36;23.50;38.70
23618;DHT22;18207;32.078;34.818;2023-02-28T01:01:07;23.50;38.70
23618;DHT22;18207;32.078;34.818;2023-02-28T01:03:39;23.50;38.60
23618;DHT22;18207;32.078;34.818;2023-02-28T01:06:12;23.50;38.60
23618;DHT22;18207;32.078;34.818;2023-02-28T01:08:43;23.40;38.60
23618;DHT22;18207;32.078;34.818;2023-02-28T01:11:16;23.40;38.50
23618;DHT22;18207;32.078;34.818;2023-02-28T01:13:47;23.40;38.40
23618;DHT22;18207;32.078;34.818;2023-02-28T01:16:18;23.40;38.40
23618;DHT22;18207;32.078;34.818;2023-02-28T01:18:52;23.40;38.40
23618;DHT22;18207;32.078;34.818;2023-02-28T01:21:24;23.40;38.40
23618;DHT22;18207;32.078;34.818;2023-02-28T01:23:57;23.40;38.50
23618;DHT22;18207;32.078;34.818;2023-02-28T01:26:28;23.40;38.40
23618;DHT22;18207;32.078;34.818;2023-02-28T01:28:59;23.40;38.40
23618;DHT22;18207;32.078;34.818;2023-02-28T01:31:31;23.40;38.40
23618;DHT22;18207;32.078;34.818;2023-02-28T01:34:04;23.40;38.50
23618;DHT22;18207;32.078;34.818;2023-02-28T01:36:34;23.40;38.50
23618;DHT22;18207;32.078;34.818;2023-02-28T01:39:05;23.40;38.50
23618;DHT22;18207;32.078;34.818;2023-02-28T01:41:36;23.40;38.40
23618;DHT22;18207;32.078;34.818;2023-02-28T01:47:11;23.40;38.30
23618;DHT22;18207;32.078;34.818;2023-02-28T01:49:48;23.30;38.30
23618;DHT22;18207;32.078;34.818;2023-02-28T01:52:26;23.40;38.40
23618;DHT22;18207;32.078;34.818;2023-02-28T01:54:59;23.30;38.20
23618;DHT22;18207;32.078;34.818;2023-02-28T01:57:36;23.30;38.30
23618;DHT22;18207;32.078;34.818;2023-02-28T02:00:15;23.30;38.30
23618;DHT22;18207;32.078;34.818;2023-02-28T02:02:58;23.30;38.20
23618;DHT22;18207;32.078;34.818;2023-02-28T02:05:40;23.30;38.10
23618;DHT22;18207;32.078;34.818;2023-02-28T02:08:18;23.30;38.10
23618;DHT22;18207;32.078;34.818;2023-02-28T02:10:53;23.30;38.10
23618;DHT22;18207;32.078;34.818;2023-02-28T02:13:37;23.30;38.10
23618;DHT22;18207;32.078;34.818;2023-02-28T02:16:34;23.30;38.00
23618;DHT22;18207;32.078;34.818;2023-02-28T02:19:50;23.30;38.00
23618;DHT22;18207;32.078;34.818;2023-02-28T02:23:01;23.30;37.80
23618;DHT22;18207;32.078;34.818;2023-02-28T02:25:59;23.30;37.90
23618;DHT22;18207;32.078;34.818;2023-02-28T02:29:03;23.30;38.30
23618;DHT22;18207;32.078;34.818;2023-02-28T02:32:28;23.30;37.70
23618;DHT22;18207;32.078;34.818;2023-02-28T02:35:39;23.30;37.60
23618;DHT22;18207;32.078;34.818;2023-02-28T02:38:22;23.30;37.80
23618;DHT22;18207;32.078;34.818;2023-02-28T02:41:09;23.30;37.70
23618;DHT22;18207;32.078;34.818;2023-02-28T02:43:49;23.30;37.70
23618;DHT22;18207;32.078;34.818;2023-02-28T02:46:28;23.30;37.70
23618;DHT22;18207;32.078;34.818;2023-02-28T02:49:04;23.30;37.70
23618;DHT22;18207;32.078;34.818;2023-02-28T02:51:54;23.30;37.70
23618;DHT22;18207;32.078;34.818;2023-02-28T02:54:29;23.30;37.60
23618;DHT22;18207;32.078;34.818;2023-02-28T02:57:07;23.30;37.60
23618;DHT22;18207;32.078;34.818;2023-02-28T02:59:41;23.30;37.50
23618;DHT22;18207;32.078;34.818;2023-02-28T03:02:14;23.30;37.60
23618;DHT22;18207;32.078;34.818;2023-02-28T03:04:50;23.30;37.50
23618;DHT22;18207;32.078;34.818;2023-02-28T03:07:26;23.30;37.50
23618;DHT22;18207;32.078;34.818;2023-02-28T03:09:57;23.30;37.50
23618;DHT22;18207;32.078;34.818;2023-02-28T03:12:33;23.40;37.50
23618;DHT22;18207;32.078;34.818;2023-02-28T03:15:16;23.30;37.30
23618;DHT22;18207;32.078;34.818;2023-02-28T03:18:01;23.40;37.30
23618;DHT22;18207;32.078;34.818;2023-02-28T03:20:44;23.40;37.30
23618;DHT22;18207;32.078;34.818;2023-02-28T03:23:33;23.40;37.20
23618;DHT22;18207;32.078;34.818;2023-02-28T03:26:12;23.40;37.10
23618;DHT22;18207;32.078;34.818;2023-02-28T03:28:55;23.40;37.10
23618;DHT22;18207;32.078;34.818;2023-02-28T03:31:38;23.40;37.00
23618;DHT22;18207;32.078;34.818;2023-02-28T03:34:17;23.40;37.00
23618;DHT22;18207;32.078;34.818;2023-02-28T03:36:56;23.40;37.00
23618;DHT22;18207;32.078;34.818;2023-02-28T03:39:36;23.40;36.90
23618;DHT22;18207;32.078;34.818;2023-02-28T03:42:13;23.40;36.90
23618;DHT22;18207;32.078;34.818;2023-02-28T03:44:50;23.40;36.90
23618;DHT22;18207;32.078;34.818;2023-02-28T03:47:28;23.40;36.90
23618;DHT22;18207;32.078;34.818;2023-02-28T03:50:05;23.50;36.90
23618;DHT22;18207;32.078;34.818;2023-02-28T03:52:45;23.40;36.80
23618;DHT22;18207;32.078;34.818;2023-02-28T03:55:22;23.50;36.90
23618;DHT22;18207;32.078;34.818;2023-02-28T03:57:58;23.50;36.90
23618;DHT22;18207;32.078;34.818;2023-02-28T04:00:36;23.50;36.90
23618;DHT22;18207;32.078;34.818;2023-02-28T04:03:09;23.50;36.90
23618;DHT22;18207;32.078;34.818;2023-02-28T04:05:48;23.50;36.90
23618;DHT22;18207;32.078;34.818;2023-02-28T04:08:22;23.50;36.80
23618;DHT22;18207;32.078;34.818;2023-02-28T04:10:57;23.50;36.80
23618;DHT22;18207;32.078;34.818;2023-02-28T04:13:33;23.50;36.70
23618;DHT22;18207;32.078;34.818;2023-02-28T04:16:07;23.50;36.70
23618;DHT22;18207;32.078;34.818;2023-02-28T04:18:58;23.50;36.70
23618;DHT22;18207;32.078;34.818;2023-02-28T04:21:35;23.50;36.70
23618;DHT22;18207;32.078;34.818;2023-02-28T04:24:10;23.50;36.50
23618;DHT22;18207;32.078;34.818;2023-02-28T04:26:46;23.50;36.30
23618;DHT22;18207;32.078;34.818;2023-02-28T04:29:26;23.50;36.20
23618;DHT22;18207;32.078;34.818;2023-02-28T04:32:00;23.60;36.00
23618;DHT22;18207;32.078;34.818;2023-02-28T04:34:32;23.60;36.10
23618;DHT22;18207;32.078;34.818;2023-02-28T04:37:02;23.60;36.00
23618;DHT22;18207;32.078;34.818;2023-02-28T04:39:40;23.70;36.00
23618;DHT22;18207;32.078;34.818;2023-02-28T04:42:14;23.70;35.80
23618;DHT22;18207;32.078;34.818;2023-02-28T04:44:45;23.80;35.80
23618;DHT22;18207;32.078;34.818;2023-02-28T04:47:16;23.80;35.70
23618;DHT22;18207;32.078;34.818;2023-02-28T04:49:47;23.90;35.70
23618;DHT22;18207;32.078;34.818;2023-02-28T04:52:17;23.90;35.70
23618;DHT22;18207;32.078;34.818;2023-02-28T04:54:48;24.00;35.70
23618;DHT22;18207;32.078;34.818;2023-02-28T04:57:20;24.10;35.80
23618;DHT22;18207;32.078;34.818;2023-02-28T04:59:51;24.10;35.80
23618;DHT22;18207;32.078;34.818;2023-02-28T05:02:21;24.20;35.80
23618;DHT22;18207;32.078;34.818;2023-02-28T05:04:55;24.20;35.80
23618;DHT22;18207;32.078;34.818;2023-02-28T05:07:25;24.30;35.90
23618;DHT22;18207;32.078;34.818;2023-02-28T05:09:56;24.40;35.90
23618;DHT22;18207;32.078;34.818;2023-02-28T05:12:30;24.40;35.90
23618;DHT22;18207;32.078;34.818;2023-02-28T05:15:00;24.50;35.70
23618;DHT22;18207;32.078;34.818;2023-02-28T05:17:32;24.60;35.60
23618;DHT22;18207;32.078;34.818;2023-02-28T05:20:02;24.70;35.60
23618;DHT22;18207;32.078;34.818;2023-02-28T05:22:42;24.80;35.50
23618;DHT22;18207;32.078;34.818;2023-02-28T05:25:16;24.90;35.40
23618;DHT22;18207;32.078;34.818;2023-02-28T05:27:52;25.00;35.30
23618;DHT22;18207;32.078;34.818;2023-02-28T05:30:22;25.10;35.30
23618;DHT22;18207;32.078;34.818;2023-02-28T05:32:52;25.20;35.30
23618;DHT22;18207;32.078;34.818;2023-02-28T05:35:22;25.30;35.30
23618;DHT22;18207;32.078;34.818;2023-02-28T05:37:54;25.40;35.10
23618;DHT22;18207;32.078;34.818;2023-02-28T05:40:24;25.50;35.00
23618;DHT22;18207;32.078;34.818;2023-02-28T05:42:57;25.70;35.00
23618;DHT22;18207;32.078;34.818;2023-02-28T05:45:27;25.80;34.90
23618;DHT22;18207;32.078;34.818;2023-02-28T05:47:57;25.90;34.80
23618;DHT22;18207;32.078;34.818;2023-02-28T05:50:28;26.00;34.70
23618;DHT22;18207;32.078;34.818;2023-02-28T05:52:59;26.10;34.70
23618;DHT22;18207;32.078;34.818;2023-02-28T05:55:29;26.20;34.50
23618;DHT22;18207;32.078;34.818;2023-02-28T05:58:02;26.40;34.60
23618;DHT22;18207;32.078;34.818;2023-02-28T06:00:32;26.50;34.50
23618;DHT22;18207;32.078;34.818;2023-02-28T06:03:04;26.60;34.50
23618;DHT22;18207;32.078;34.818;2023-02-28T06:05:34;26.80;34.50
23618;DHT22;18207;32.078;34.818;2023-02-28T06:08:06;26.90;34.20
23618;DHT22;18207;32.078;34.818;2023-02-28T06:10:36;27.00;34.10
23618;DHT22;18207;32.078;34.818;2023-02-28T06:13:09;27.10;34.00
23618;DHT22;18207;32.078;34.818;2023-02-28T06:15:40;27.30;33.90
23618;DHT22;18207;32.078;34.818;2023-02-28T06:18:11;27.40;33.90
23618;DHT22;18207;32.078;34.818;2023-02-28T06:20:41;27.50;33.70
23618;DHT22;18207;32.078;34.818;2023-02-28T06:23:12;27.60;33.60
23618;DHT22;18207;32.078;34.818;2023-02-28T06:25:45;27.80;33.70
23618;DHT22;18207;32.078;34.818;2023-02-28T06:28:19;27.90;33.80
23618;DHT22;18207;32.078;34.818;2023-02-28T06:30:50;28.00;33.60
23618;DHT22;18207;32.078;34.818;2023-02-28T06:33:21;28.10;33.40
23618;DHT22;18207;32.078;34.818;2023-02-28T06:35:53;28.20;33.30
23618;DHT22;18207;32.078;34.818;2023-02-28T06:38:24;28.30;33.20
23618;DHT22;18207;32.078;34.818;2023-02-28T06:40:56;28.50;33.00
23618;DHT22;18207;32.078;34.818;2023-02-28T06:43:33;28.60;32.90
23618;DHT22;18207;32.078;34.818;2023-02-28T06:46:07;28.70;32.70
23618;DHT22;18207;32.078;34.818;2023-02-28T06:48:42;28.80;32.70
23618;DHT22;18207;32.078;34.818;2023-02-28T06:51:14;28.90;32.20
23618;DHT22;18207;32.078;34.818;2023-02-28T06:53:48;29.00;32.10
23618;DHT22;18207;32.078;34.818;2023-02-28T06:56:20;29.10;31.20
23618;DHT22;18207;32.078;34.818;2023-02-28T06:58:53;29.20;31.60
23618;DHT22;18207;32.078;34.818;2023-02-28T07:01:24;29.30;31.50
23618;DHT22;18207;32.078;34.818;2023-02-28T07:03:56;29.30;31.40
23618;DHT22;18207;32.078;34.818;2023-02-28T07:06:27;29.50;31.40
23618;DHT22;18207;32.078;34.818;2023-02-28T07:08:58;29.60;31.30
23618;DHT22;18207;32.078;34.818;2023-02-28T07:11:32;29.60;31.10
23618;DHT22;18207;32.078;34.818;2023-02-28T07:14:04;29.70;30.90
23618;DHT22;18207;32.078;34.818;2023-02-28T07:16:35;29.80;30.60
23618;DHT22;18207;32.078;34.818;2023-02-28T07:19:06;29.90;30.70
23618;DHT22;18207;32.078;34.818;2023-02-28T07:21:37;30.00;30.50
23618;DHT22;18207;32.078;34.818;2023-02-28T07:24:07;30.10;30.30
23618;DHT22;18207;32.078;34.818;2023-02-28T07:26:39;30.20;30.10
23618;DHT22;18207;32.078;34.818;2023-02-28T07:29:15;30.20;30.00
23618;DHT22;18207;32.078;34.818;2023-02-28T07:31:46;30.30;29.80
23618;DHT22;18207;32.078;34.818;2023-02-28T07:34:18;30.40;29.80
23618;DHT22;18207;32.078;34.818;2023-02-28T07:36:48;30.50;29.70
23618;DHT22;18207;32.078;34.818;2023-02-28T07:39:21;30.50;29.60
23618;DHT22;18207;32.078;34.818;2023-02-28T07:41:51;30.60;29.40
23618;DHT22;18207;32.078;34.818;2023-02-28T07:44:24;30.60;29.40
23618;DHT22;18207;32.078;34.818;2023-02-28T07:46:54;30.70;29.50
23618;DHT22;18207;32.078;34.818;2023-02-28T07:49:24;30.80;29.40
23618;DHT22;18207;32.078;34.818;2023-02-28T07:51:54;30.90;29.10
23618;DHT22;18207;32.078;34.818;2023-02-28T07:54:25;30.90;29.00
23618;DHT22;18207;32.078;34.818;2023-02-28T07:56:55;31.00;29.10
23618;DHT22;18207;32.078;34.818;2023-02-28T07:59:27;31.10;29.00
23618;DHT22;18207;32.078;34.818;2023-02-28T08:01:58;31.10;28.80
23618;DHT22;18207;32.078;34.818;2023-02-28T08:04:32;31.20;28.80
23618;DHT22;18207;32.078;34.818;2023-02-28T08:07:02;31.20;28.20
23618;DHT22;18207;32.078;34.818;2023-02-28T08:09:33;31.30;28.60
23618;DHT22;18207;32.078;34.818;2023-02-28T08:12:04;31.40;28.60
23618;DHT22;18207;32.078;34.818;2023-02-28T08:14:37;31.50;28.60
23618;DHT22;18207;32.078;34.818;2023-02-28T08:17:09;31.50;28.50
23618;DHT22;18207;32.078;34.818;2023-02-28T08:19:41;31.60;28.30
23618;DHT22;18207;32.078;34.818;2023-02-28T08:22:12;31.60;28.20
23618;DHT22;18207;32.078;34.818;2023-02-28T08:24:43;31.70;28.30
23618;DHT22;18207;32.078;34.818;2023-02-28T08:27:13;31.70;28.00
23618;DHT22;18207;32.078;34.818;2023-02-28T08:29:48;31.80;27.80
23618;DHT22;18207;32.078;34.818;2023-02-28T08:32:18;31.80;27.70
23618;DHT22;18207;32.078;34.818;2023-02-28T08:34:56;31.90;27.50
23618;DHT22;18207;32.078;34.818;2023-02-28T08:37:27;31.90;27.40
23618;DHT22;18207;32.078;34.818;2023-02-28T08:40:02;31.90;27.30
23618;DHT22;18207;32.078;34.818;2023-02-28T08:42:34;31.90;27.20
23618;DHT22;18207;32.078;34.818;2023-02-28T08:45:21;31.90;27.20
23618;DHT22;18207;32.078;34.818;2023-02-28T08:47:53;32.00;26.90
23618;DHT22;18207;32.078;34.818;2023-02-28T08:50:24;32.00;27.00
23618;DHT22;18207;32.078;34.818;2023-02-28T08:52:55;32.00;26.90
23618;DHT22;18207;32.078;34.818;2023-02-28T08:55:26;32.10;26.90
23618;DHT22;18207;32.078;34.818;2023-02-28T08:57:57;32.10;26.90
23618;DHT22;18207;32.078;34.818;2023-02-28T09:00:31;32.10;26.80
23618;DHT22;18207;32.078;34.818;2023-02-28T09:03:01;32.10;26.70
23618;DHT22;18207;32.078;34.818;2023-02-28T09:05:34;32.20;26.70
23618;DHT22;18207;32.078;34.818;2023-02-28T09:08:05;32.20;26.60
23618;DHT22;18207;32.078;34.818;2023-02-28T09:10:36;32.20;26.50
23618;DHT22;18207;32.078;34.818;2023-02-28T09:13:06;32.20;26.30
23618;DHT22;18207;32.078;34.818;2023-02-28T09:15:39;32.20;26.30
23618;DHT22;18207;32.078;34.818;2023-02-28T09:18:10;32.20;26.10
23618;DHT22;18207;32.078;34.818;2023-02-28T09:20:43;32.20;25.90
23618;DHT22;18207;32.078;34.818;2023-02-28T09:23:13;32.10;25.80
23618;DHT22;18207;32.078;34.818;2023-02-28T09:25:48;32.00;25.80
23618;DHT22;18207;32.078;34.818;2023-02-28T09:28:19;32.10;25.80
23618;DHT22;18207;32.078;34.818;2023-02-28T09:30:53;32.10;25.80
23618;DHT22;18207;32.078;34.818;2023-02-28T09:33:25;32.10;25.80
23618;DHT22;18207;32.078;34.818;2023-02-28T09:36:01;32.00;25.70
23618;DHT22;18207;32.078;34.818;2023-02-28T09:38:32;32.00;25.70
23618;DHT22;18207;32.078;34.818;2023-02-28T09:41:09;32.00;25.80
23618;DHT22;18207;32.078;34.818;2023-02-28T09:43:45;32.00;25.70
23618;DHT22;18207;32.078;34.818;2023-02-28T09:46:30;32.00;25.60
23618;DHT22;18207;32.078;34.818;2023-02-28T09:49:06;31.90;25.40
23618;DHT22;18207;32.078;34.818;2023-02-28T09:51:47;32.00;25.50
23618;DHT22;18207;32.078;34.818;2023-02-28T09:54:24;31.90;25.10
23618;DHT22;18207;32.078;34.818;2023-02-28T09:57:00;31.90;25.10
23618;DHT22;18207;32.078;34.818;2023-02-28T09:59:56;31.90;25.10
23618;DHT22;18207;32.078;34.818;2023-02-28T10:05:55;31.90;25.20
23618;DHT22;18207;32.078;34.818;2023-02-28T10:08:36;31.90;25.10
23618;DHT22;18207;32.078;34.818;2023-02-28T10:11:12;31.90;25.10
23618;DHT22;18207;32.078;34.818;2023-02-28T10:13:53;31.90;25.10
23618;DHT22;18207;32.078;34.818;2023-02-28T10:16:32;31.90;25.10
23618;DHT22;18207;32.078;34.818;2023-02-28T10:19:14;31.80;25.10
23618;DHT22;18207;32.078;34.818;2023-02-28T10:21:55;31.70;25.00
23618;DHT22;18207;32.078;34.818;2023-02-28T10:24:32;31.70;25.00
23618;DHT22;18207;32.078;34.818;2023-02-28T10:27:13;31.70;25.00
23618;DHT22;18207;32.078;34.818;2023-02-28T10:29:50;31.70;25.00
23618;DHT22;18207;32.078;34.818;2023-02-28T10:32:27;31.70;25.00
23618;DHT22;18207;32.078;34.818;2023-02-28T10:35:10;31.60;25.00
23618;DHT22;18207;32.078;34.818;2023-02-28T10:37:47;31.60;24.70
23618;DHT22;18207;32.078;34.818;2023-02-28T10:40:29;31.60;24.90
23618;DHT22;18207;32.078;34.818;2023-02-28T10:43:04;31.50;24.50
23618;DHT22;18207;32.078;34.818;2023-02-28T10:45:36;31.50;24.70
23618;DHT22;18207;32.078;34.818;2023-02-28T10:48:27;31.50;24.50
23618;DHT22;18207;32.078;34.818;2023-02-28T10:51:04;31.50;24.30
23618;DHT22;18207;32.078;34.818;2023-02-28T10:53:48;31.50;24.30
23618;DHT22;18207;32.078;34.818;2023-02-28T10:56:29;31.50;24.30
23618;DHT22;18207;32.078;34.818;2023-02-28T10:59:02;31.50;24.50
23618;DHT22;18207;32.078;34.818;2023-02-28T11:01:51;31.40;24.30
23618;DHT22;18207;32.078;34.818;2023-02-28T11:04:34;31.40;24.30
23618;DHT22;18207;32.078;34.818;2023-02-28T11:07:18;31.30;24.10
23618;DHT22;18207;32.078;34.818;2023-02-28T11:09:55;31.40;24.10
23618;DHT22;18207;32.078;34.818;2023-02-28T11:12:30;31.30;24.20
23618;DHT22;18207;32.078;34.818;2023-02-28T11:15:23;31.30;24.20
23618;DHT22;18207;32.078;34.818;2023-02-28T11:17:57;31.30;24.40
23618;DHT22;18207;32.078;34.818;2023-02-28T11:20:32;31.30;24.30
23618;DHT22;18207;32.078;34.818;2023-02-28T11:23:12;31.30;24.20
23618;DHT22;18207;32.078;34.818;2023-02-28T11:25:50;31.30;24.10
23618;DHT22;18207;32.078;34.818;2023-02-28T11:28:28;31.20;24.10
23618;DHT22;18207;32.078;34.818;2023-02-28T11:31:04;31.20;24.10
23618;DHT22;18207;32.078;34.818;2023-02-28T11:33:46;31.20;24.10
23618;DHT22;18207;32.078;34.818;2023-02-28T11:36:20;31.20;24.10
23618;DHT22;18207;32.078;34.818;2023-02-28T11:39:00;31.20;24.00
23618;DHT22;18207;32.078;34.818;2023-02-28T11:41:52;31.20;24.00
23618;DHT22;18207;32.078;34.818;2023-02-28T11:44:53;31.10;23.90
23618;DHT22;18207;32.078;34.818;2023-02-28T11:47:47;31.10;23.90
23618;DHT22;18207;32.078;34.818;2023-02-28T11:50:37;31.10;24.00
23618;DHT22;18207;32.078;34.818;2023-02-28T11:53:19;31.00;23.90
23618;DHT22;18207;32.078;34.818;2023-02-28T11:56:03;31.00;23.90
23618;DHT22;18207;32.078;34.818;2023-02-28T11:58:46;31.00;24.40
23618;DHT22;18207;32.078;34.818;2023-02-28T12:01:32;31.00;24.20
23618;DHT22;18207;32.078;34.818;2023-02-28T12:04:24;31.00;23.90
23618;DHT22;18207;32.078;34.818;2023-02-28T12:07:02;31.00;23.90
23618;DHT22;18207;32.078;34.818;2023-02-28T12:09:51;30.90;23.90
23618;DHT22;18207;32.078;34.818;2023-02-28T12:12:39;30.90;23.80
23618;DHT22;18207;32.078;34.818;2023-02-28T12:15:32;30.90;23.70
23618;DHT22;18207;32.078;34.818;2023-02-28T12:18:53;30.80;23.80
23618;DHT22;18207;32.078;34.818;2023-02-28T12:21:51;30.80;23.80
23618;DHT22;18207;32.078;34.818;2023-02-28T12:28:01;30.80;23.60
23618;DHT22;18207;32.078;34.818;2023-02-28T12:30:35;30.80;23.70
23618;DHT22;18207;32.078;34.818;2023-02-28T12:33:13;30.80;23.70
23618;DHT22;18207;32.078;34.818;2023-02-28T12:35:51;30.70;23.60
23618;DHT22;18207;32.078;34.818;2023-02-28T12:38:36;30.70;23.50
23618;DHT22;18207;32.078;34.818;2023-02-28T12:41:13;30.70;23.50
23618;DHT22;18207;32.078;34.818;2023-02-28T12:43:58;30.70;23.70
23618;DHT22;18207;32.078;34.818;2023-02-28T12:46:35;30.70;23.60
23618;DHT22;18207;32.078;34.818;2023-02-28T12:49:14;30.60;23.50
23618;DHT22;18207;32.078;34.818;2023-02-28T12:51:49;30.70;23.60
23618;DHT22;18207;32.078;34.818;2023-02-28T12:54:24;30.70;23.50
23618;DHT22;18207;32.078;34.818;2023-02-28T12:57:06;30.60;23.50
23618;DHT22;18207;32.078;34.818;2023-02-28T12:59:49;30.60;23.40
23618;DHT22;18207;32.078;34.818;2023-02-28T13:06:02;30.70;23.20
23618;DHT22;18207;32.078;34.818;2023-02-28T13:09:09;30.70;23.10
23618;DHT22;18207;32.078;34.818;2023-02-28T13:11:44;30.60;23.10
23618;DHT22;18207;32.078;34.818;2023-02-28T13:14:26;30.70;23.30
23618;DHT22;18207;32.078;34.818;2023-02-28T13:17:03;30.70;23.20
23618;DHT22;18207;32.078;34.818;2023-02-28T13:19:44;30.70;23.30
23618;DHT22;18207;32.078;34.818;2023-02-28T13:22:19;30.60;23.20
23618;DHT22;18207;32.078;34.818;2023-02-28T13:35:38;30.60;22.90
23618;DHT22;18207;32.078;34.818;2023-02-28T13:41:46;30.60;23.10
23618;DHT22;18207;32.078;34.818;2023-02-28T13:44:18;30.60;23.00
23618;DHT22;18207;32.078;34.818;2023-02-28T13:47:23;30.60;23.60
23618;DHT22;18207;32.078;34.818;2023-02-28T13:50:22;30.50;22.90
23618;DHT22;18207;32.078;34.818;2023-02-28T13:56:34;30.50;22.90
23618;DHT22;18207;32.078;34.818;2023-02-28T13:59:23;30.50;23.00
23618;DHT22;18207;32.078;34.818;2023-02-28T14:02:30;30.50;23.20
23618;DHT22;18207;32.078;34.818;2023-02-28T14:05:15;30.50;23.00
23618;DHT22;18207;32.078;34.818;2023-02-28T14:07:57;30.50;23.20
23618;DHT22;18207;32.078;34.818;2023-02-28T14:10:32;30.50;23.20
23618;DHT22;18207;32.078;34.818;2023-02-28T14:16:13;30.40;23.10
23618;DHT22;18207;32.078;34.818;2023-02-28T14:18:50;30.40;23.20
23618;DHT22;18207;32.078;34.818;2023-02-28T14:21:38;30.40;23.10
23618;DHT22;18207;32.078;34.818;2023-02-28T14:24:51;30.30;23.10
23618;DHT22;18207;32.078;34.818;2023-02-28T14:27:45;30.30;23.00
23618;DHT22;18207;32.078;34.818;2023-02-28T14:30:47;30.30;23.00
23618;DHT22;18207;32.078;34.818;2023-02-28T14:33:46;30.30;23.00
23618;DHT22;18207;32.078;34.818;2023-02-28T14:36:33;30.20;23.10
23618;DHT22;18207;32.078;34.818;2023-02-28T14:39:06;30.20;23.10
23618;DHT22;18207;32.078;34.818;2023-02-28T14:41:44;30.20;23.10
23618;DHT22;18207;32.078;34.818;2023-02-28T14:44:18;30.20;23.00
23618;DHT22;18207;32.078;34.818;2023-02-28T14:46:50;30.20;23.10
23618;DHT22;18207;32.078;34.818;2023-02-28T14:49:27;30.20;23.10
23618;DHT22;18207;32.078;34.818;2023-02-28T14:52:06;30.20;23.10
23618;DHT22;18207;32.078;34.818;2023-02-28T14:54:44;30.20;23.00
23618;DHT22;18207;32.078;34.818;2023-02-28T14:57:26;30.10;23.10
23618;DHT22;18207;32.078;34.818;2023-02-28T15:00:00;30.10;23.10
23618;DHT22;18207;32.078;34.818;2023-02-28T15:02:35;30.10;23.00
23618;DHT22;18207;32.078;34.818;2023-02-28T15:05:21;30.00;23.20
23618;DHT22;18207;32.078;34.818;2023-02-28T15:08:10;30.00;23.30
23618;DHT22;18207;32.078;34.818;2023-02-28T15:10:45;30.00;23.10
23618;DHT22;18207;32.078;34.818;2023-02-28T15:13:23;29.90;23.10
23618;DHT22;18207;32.078;34.818;2023-02-28T15:16:01;29.90;23.30
23618;DHT22;18207;32.078;34.818;2023-02-28T15:18:43;29.80;23.30
23618;DHT22;18207;32.078;34.818;2023-02-28T15:21:19;29.80;23.30
23618;DHT22;18207;32.078;34.818;2023-02-28T15:23:55;29.80;23.40
23618;DHT22;18207;32.078;34.818;2023-02-28T15:26:33;29.70;23.40
23618;DHT22;18207;32.078;34.818;2023-02-28T15:29:14;29.70;23.60
23618;DHT22;18207;32.078;34.818;2023-02-28T15:31:49;29.70;23.60
23618;DHT22;18207;32.078;34.818;2023-02-28T15:34:29;29.60;23.60
23618;DHT22;18207;32.078;34.818;2023-02-28T15:37:37;29.60;23.70
23618;DHT22;18207;32.078;34.818;2023-02-28T15:40:15;29.50;23.70
23618;DHT22;18207;32.078;34.818;2023-02-28T15:43:03;29.50;23.80
23618;DHT22;18207;32.078;34.818;2023-02-28T15:45:43;29.40;23.90
23618;DHT22;18207;32.078;34.818;2023-02-28T15:48:18;29.40;24.00
23618;DHT22;18207;32.078;34.818;2023-02-28T15:50:53;29.30;23.90
23618;DHT22;18207;32.078;34.818;2023-02-28T15:53:30;29.30;23.90
23618;DHT22;18207;32.078;34.818;2023-02-28T15:56:05;29.20;23.90
23618;DHT22;18207;32.078;34.818;2023-02-28T15:58:44;29.20;23.90
23618;DHT22;18207;32.078;34.818;2023-02-28T16:01:25;29.20;24.00
23618;DHT22;18207;32.078;34.818;2023-02-28T16:04:00;29.10;24.10
23618;DHT22;18207;32.078;34.818;2023-02-28T16:06:39;29.10;24.20
23618;DHT22;18207;32.078;34.818;2023-02-28T16:09:13;29.10;24.30
23618;DHT22;18207;32.078;34.818;2023-02-28T16:11:47;29.00;24.30
23618;DHT22;18207;32.078;34.818;2023-02-28T16:14:21;29.00;24.30
23618;DHT22;18207;32.078;34.818;2023-02-28T16:17:02;28.90;24.30
23618;DHT22;18207;32.078;34.818;2023-02-28T16:19:36;28.90;24.40
23618;DHT22;18207;32.078;34.818;2023-02-28T16:22:07;28.90;24.50
23618;DHT22;18207;32.078;34.818;2023-02-28T16:24:39;28.90;24.50
23618;DHT22;18207;32.078;34.818;2023-02-28T16:27:17;28.80;24.50
23618;DHT22;18207;32.078;34.818;2023-02-28T16:29:50;28.80;24.60
23618;DHT22;18207;32.078;34.818;2023-02-28T16:32:22;28.80;24.60
23618;DHT22;18207;32.078;34.818;2023-02-28T16:34:53;28.70;24.70
23618;DHT22;18207;32.078;34.818;2023-02-28T16:37:24;28.70;24.80
23618;DHT22;18207;32.078;34.818;2023-02-28T16:39:57;28.70;24.70
23618;DHT22;18207;32.078;34.818;2023-02-28T16:42:28;28.70;24.70
23618;DHT22;18207;32.078;34.818;2023-02-28T16:45:00;28.60;24.60
23618;DHT22;18207;32.078;34.818;2023-02-28T16:47:32;28.60;24.60
23618;DHT22;18207;32.078;34.818;2023-02-28T16:50:11;28.60;24.70